Skardu Weather



Skardu's Current Weather

Temprature 27.39o broken clouds

broken clouds

Rain: 0 %

Min Temprature27.39o
Max Temprature27.39o
Humidity25
Wind Speed3.18 m/h
Sun Rise05:15:40
Sun Set18:49:10
Current Time: 13-Aug-2020 18:44:01
Lat/Lon: 35.29, 75.63




Skardu's Geo Location



Skardu's Weather Forecast

Time Overall Temp Min Temp Max Temp Humidity Wind Speed Rain
13-Aug-2020 (Thu)
20:00:00 broken clouds 27.780 26.410 27.780 25 3.09 m/h 0 %
23:00:00 broken clouds 25.320 24.280 25.320 28 3.72 m/h 0 %
14-Aug-2020 (Fri)
02:00:00 broken clouds 23.220 22.820 23.220 30 3.67 m/h 0 %
05:00:00 scattered clouds 21.220 21.160 21.220 34 2.83 m/h 0 %
08:00:00 clear sky 24.260 24.260 24.260 29 0.78 m/h 0 %
11:00:00 clear sky 27.940 27.940 27.940 23 0.97 m/h 0 %
14:00:00 broken clouds 29.660 29.660 29.660 21 1.6 m/h 0 %
17:00:00 broken clouds 29.890 29.890 29.890 22 2.78 m/h 0 %
20:00:00 broken clouds 27.010 27.010 27.010 29 3.98 m/h 0 %
23:00:00 scattered clouds 24.470 24.470 24.470 36 3.4 m/h 0 %
15-Aug-2020 (Sat)
02:00:00 scattered clouds 22.770 22.770 22.770 39 3.41 m/h 0 %
05:00:00 scattered clouds 21.160 21.160 21.160 42 3.57 m/h 0 %
08:00:00 few clouds 24.090 24.090 24.090 34 0.8 m/h 0 %
11:00:00 clear sky 28.050 28.050 28.050 25 1.4 m/h 0 %
14:00:00 broken clouds 30.230 30.230 30.230 20 1.25 m/h 0 %
17:00:00 broken clouds 30.670 30.670 30.670 19 1.34 m/h 0 %
20:00:00 scattered clouds 27.810 27.810 27.810 27 2.53 m/h 0 %
23:00:00 few clouds 25.160 25.160 25.160 36 2.88 m/h 0 %
16-Aug-2020 (Sun)
02:00:00 clear sky 23.470 23.470 23.470 37 2.23 m/h 0 %
05:00:00 clear sky 21.900 21.900 21.900 38 1.76 m/h 0 %
08:00:00 clear sky 25.640 25.640 25.640 26 1.16 m/h 0 %
11:00:00 clear sky 29.350 29.350 29.350 18 1.6 m/h 0 %
14:00:00 clear sky 32.230 32.230 32.230 13 1.89 m/h 0 %
17:00:00 clear sky 32.770 32.770 32.770 12 1.94 m/h 0 %
20:00:00 clear sky 29.510 29.510 29.510 18 1.66 m/h 0 %
23:00:00 clear sky 26.650 26.650 26.650 28 2.49 m/h 0 %
17-Aug-2020 (Mon)
02:00:00 clear sky 24.770 24.770 24.770 30 2.04 m/h 0 %
05:00:00 clear sky 23.040 23.040 23.040 33 1.63 m/h 0 %
08:00:00 clear sky 26.890 26.890 26.890 21 1.03 m/h 0 %
11:00:00 clear sky 30.550 30.550 30.550 17 1.71 m/h 0 %
14:00:00 clear sky 32.980 32.980 32.980 14 2.19 m/h 0 %
17:00:00 scattered clouds 32.660 32.660 32.660 17 2.31 m/h 0 %
20:00:00 scattered clouds 28.710 28.710 28.710 26 3.66 m/h 0 %
23:00:00 few clouds 26.300 26.300 26.300 32 3.53 m/h 0 %
18-Aug-2020 (Tue)
02:00:00 clear sky 24.020 24.020 24.020 39 3.69 m/h 0 %
05:00:00 clear sky 22.290 22.290 22.290 43 3.39 m/h 0 %
08:00:00 scattered clouds 25.380 25.380 25.380 33 1.62 m/h 0 %
11:00:00 scattered clouds 29.720 29.720 29.720 20 0.86 m/h 0 %
14:00:00 broken clouds 31.520 31.520 31.520 20 4.19 m/h 0 %
17:00:00 light rain 29.620 29.620 29.620 24 4.34 m/h 21 %

Famous Cities (60)